Newington, Connecticut
Current Conditions -  °F | °C
As of 8:53 PM on Friday 24 Oct 2014 (Local Time) from KHFD Reporting Station
Clear Clear  
Wind Chill: 51°   Ceiling: Unl
Heat Index: 51°   Visibility: 10mi
Dew Point: 42°   Wind: 6mph
Humidity: 71%   Direction: NA
Pressure: 29.78"   Gusts: NA
Location:  41.7°N, 72.73°W
Report Text: KHFD 250053Z VRB05KT 10SM CLR 11/06 A2978 RMK AO2 SLP082 T01060056
Loading
Personal Weather Stations






























Interactive Weather Map New forecast layout! Learn more

10-Day Weather Forecast

Advertisements
Track Severe Weather on mobile